Germantown, New York
Current Conditions -  °F | °C
As of 12:53 PM on Saturday 25 Oct 2014 (Local Time) from KPOU Reporting Station
Few Clouds Few Clouds  
Wind Chill: 64°   Ceiling: Unl
Heat Index: 64°   Visibility: 10mi
Dew Point: 43°   Wind: 5mph
Humidity: 46%   Direction: NA
Pressure: 29.74"   Gusts: NA
Location:  42.13°N, 73.88°W
Report Text: KPOU 251653Z VRB04KT 10SM FEW060 18/06 A2974 RMK AO2 SLP066 T01780061
Loading
Personal Weather Stations






























Interactive Weather Map
Tropical Storm Tracking
New forecast layout! Learn more

10-Day Weather Forecast

Advertisements
Track Severe Weather on mobile